Time;durP1;ratioP1;P1;durP2;ratioP2;P2;SDS_P1;SDS_P2;PMS_P1;PMS_P2;Temp;Humidity;BMP_temperature;BMP_pressure;BME280_temperature;BME280_humidity;BME280_pressure;Samples;Min_cycle;Max_cycle;Signal;HPM_P1;HPM_P2
2022/01/14 00:02:22;;;;;;;29.85;20.45;;;2.70;76.50;;;;;;5055651;28;20635;-59
2022/01/14 00:04:49;;;;;;;30.67;19.38;;;2.70;76.40;;;;;;5055545;28;20747;-59
2022/01/14 00:07:18;;;;;;;29.70;18.67;;;2.50;77.30;;;;;;5055495;28;20384;-60
2022/01/14 00:09:46;;;;;;;29.17;19.95;;;2.10;78.90;;;;;;5055425;28;20206;-58
2022/01/14 00:12:16;;;;;;;33.92;20.98;;;1.70;80.40;;;;;;5053893;28;20248;-56
2022/01/14 00:14:45;;;;;;;35.10;22.75;;;1.40;81.50;;;;;;5055446;28;20631;-57
2022/01/14 00:17:14;;;;;;;34.97;22.65;;;1.50;81.40;;;;;;5055552;28;20244;-56
2022/01/14 00:19:43;;;;;;;34.55;21.58;;;1.50;80.60;;;;;;5055421;28;20201;-58
2022/01/14 00:22:14;;;;;;;33.85;22.13;;;1.60;80.30;;;;;;5055006;28;20201;-58
2022/01/14 00:33:08;;;;;;;35.90;21.45;;;1.40;81.00;;;;;;5055054;28;20299;-57
2022/01/14 00:35:36;;;;;;;37.40;22.25;;;1.40;81.30;;;;;;5055042;28;20221;-57
2022/01/14 00:38:04;;;;;;;38.53;23.20;;;1.30;81.60;;;;;;5054898;28;20201;-57
2022/01/14 00:40:33;;;;;;;35.72;22.55;;;1.20;82.00;;;;;;5054891;28;20205;-59
2022/01/14 00:43:00;;;;;;;35.70;21.67;;;1.20;82.40;;;;;;5053572;28;20600;-58
2022/01/14 00:45:27;;;;;;;32.25;20.08;;;1.20;82.70;;;;;;5054876;28;20205;-58
2022/01/14 00:47:54;;;;;;;33.67;19.35;;;1.10;83.10;;;;;;5054835;28;20202;-55
2022/01/14 00:50:21;;;;;;;42.78;23.17;;;0.90;84.00;;;;;;5054737;28;20197;-59
2022/01/14 00:52:49;;;;;;;36.83;22.42;;;1.00;84.30;;;;;;5054647;28;20229;-58
2022/01/14 00:55:25;;;;;;;36.40;21.95;;;1.10;83.50;;;;;;5054760;28;20659;-58
2022/01/14 01:00:38;;;;;;;38.53;21.95;;;1.20;83.10;;;;;;5054691;28;20240;-59
2022/01/14 01:03:05;;;;;;;35.90;21.90;;;1.10;83.20;;;;;;5054586;28;20656;-58
2022/01/14 01:05:32;;;;;;;34.90;20.15;;;1.10;83.20;;;;;;5034632;28;20208;-57
2022/01/14 01:08:04;;;;;;;39.80;23.13;;;1.10;83.20;;;;;;5034371;28;20206;-56
2022/01/14 01:10:32;;;;;;;35.33;19.55;;;1.00;83.50;;;;;;5034406;28;20297;-57
2022/01/14 01:13:08;;;;;;;35.10;20.85;;;1.10;83.40;;;;;;5032091;28;20325;-58
2022/01/14 01:15:35;;;;;;;42.83;20.95;;;1.10;83.40;;;;;;5034348;28;20206;-59
2022/01/14 01:18:01;;;;;;;33.75;20.38;;;1.20;83.40;;;;;;5034319;28;20202;-59
2022/01/14 01:20:28;;;;;;;39.13;22.15;;;1.20;83.30;;;;;;5034203;28;20202;-58
2022/01/14 01:22:55;;;;;;;33.40;20.30;;;1.30;83.10;;;;;;5034042;28;20202;-58
2022/01/14 01:25:26;;;;;;;33.97;19.40;;;1.30;83.00;;;;;;5034122;28;20289;-59
2022/01/14 01:27:54;;;;;;;29.42;18.83;;;1.40;83.20;;;;;;5032802;28;20297;-60
2022/01/14 01:33:08;;;;;;;35.40;19.35;;;1.50;83.40;;;;;;5034013;28;20584;-59
2022/01/14 01:35:35;;;;;;;29.73;18.05;;;1.70;83.10;;;;;;5054039;28;20263;-58
2022/01/14 01:38:02;;;;;;;29.95;19.40;;;1.90;82.10;;;;;;5053791;28;20300;-58
2022/01/14 01:40:29;;;;;;;35.72;21.45;;;2.10;81.10;;;;;;5053824;28;20237;-58
2022/01/14 01:42:59;;;;;;;34.97;19.88;;;2.20;80.30;;;;;;5052584;28;20236;-58
2022/01/14 01:45:27;;;;;;;29.08;19.75;;;2.20;80.00;;;;;;5053797;28;20250;-59
2022/01/14 01:47:55;;;;;;;32.65;19.77;;;2.20;79.90;;;;;;5053752;28;20201;-58
2022/01/14 01:50:29;;;;;;;30.30;19.52;;;2.20;79.90;;;;;;5053660;28;20563;-58
2022/01/14 01:52:56;;;;;;;37.35;19.65;;;2.20;80.00;;;;;;5053304;28;20225;-59
2022/01/14 01:55:24;;;;;;;33.40;20.25;;;2.30;80.00;;;;;;5053554;28;20209;-60
2022/01/14 01:57:52;;;;;;;34.40;20.58;;;2.40;79.70;;;;;;5052319;28;20201;-59
2022/01/14 02:00:22;;;;;;;35.15;21.60;;;2.40;79.40;;;;;;5053292;28;20224;-58
2022/01/14 02:02:53;;;;;;;33.70;21.05;;;2.40;79.30;;;;;;5053364;28;20244;-57
2022/01/14 02:05:20;;;;;;;33.92;19.90;;;2.40;79.40;;;;;;5053401;28;20629;-59
2022/01/14 02:07:47;;;;;;;33.00;20.08;;;2.50;79.20;;;;;;5053354;28;20215;-58
2022/01/14 02:10:14;;;;;;;30.98;19.70;;;2.60;78.80;;;;;;5053302;28;20205;-59
2022/01/14 02:12:49;;;;;;;39.50;20.90;;;2.60;78.60;;;;;;5051604;28;20256;-58
2022/01/14 02:15:28;;;;;;;39.83;19.90;;;2.60;78.30;;;;;;5053384;28;20205;-60
2022/01/14 02:18:26;;;;;;;30.25;19.38;;;2.60;78.10;;;;;;5053161;28;20212;-59
2022/01/14 02:23:44;;;;;;;35.40;20.67;;;2.70;77.70;;;;;;5052878;28;20274;-59
2022/01/14 02:26:11;;;;;;;34.70;21.20;;;2.70;77.70;;;;;;5052989;28;20205;-58
2022/01/14 02:28:38;;;;;;;33.88;18.45;;;2.70;77.50;;;;;;5051856;28;20209;-59
2022/01/14 02:31:05;;;;;;;33.28;19.75;;;2.80;77.40;;;;;;5053026;28;20567;-59
2022/01/14 02:33:32;;;;;;;29.75;18.52;;;2.80;77.30;;;;;;5052648;28;20563;-58
2022/01/14 02:36:02;;;;;;;31.42;19.83;;;2.90;76.90;;;;;;5052846;28;20652;-59
2022/01/14 02:38:30;;;;;;;34.17;20.33;;;2.90;77.10;;;;;;5052666;28;20202;-59
2022/01/14 02:40:57;;;;;;;34.90;22.80;;;2.90;76.50;;;;;;5052895;28;20248;-59
2022/01/14 02:43:26;;;;;;;34.58;22.17;;;2.90;76.50;;;;;;5051480;28;20201;-58
2022/01/14 02:45:56;;;;;;;35.50;22.08;;;2.80;76.60;;;;;;5052782;28;20229;-59
2022/01/14 02:48:24;;;;;;;37.00;21.90;;;2.70;76.70;;;;;;5052682;28;20208;-59
2022/01/14 02:50:58;;;;;;;39.85;22.05;;;2.50;77.10;;;;;;5052720;28;20215;-59
2022/01/14 02:53:30;;;;;;;33.92;21.92;;;2.30;77.80;;;;;;5052421;28;20709;-57
2022/01/14 02:55:59;;;;;;;42.08;23.05;;;2.10;78.40;;;;;;5052708;28;20613;-58
2022/01/14 02:58:29;;;;;;;34.70;21.77;;;2.10;78.90;;;;;;5051268;28;20243;-59
2022/01/14 03:00:58;;;;;;;37.65;22.40;;;2.00;79.20;;;;;;5052604;28;20660;-58
2022/01/14 03:03:26;;;;;;;40.55;22.77;;;1.90;79.40;;;;;;5052531;28;20204;-58
2022/01/14 03:05:53;;;;;;;36.80;21.30;;;1.80;79.70;;;;;;5052687;28;20201;-59
2022/01/14 03:08:22;;;;;;;35.55;21.60;;;1.70;80.00;;;;;;5052546;28;20206;-59
2022/01/14 03:10:56;;;;;;;36.30;21.20;;;1.60;80.30;;;;;;5052511;28;20282;-59
2022/01/14 03:13:23;;;;;;;35.35;20.58;;;1.60;80.30;;;;;;5050945;28;20233;-59
2022/01/14 03:15:50;;;;;;;31.95;21.15;;;1.50;80.30;;;;;;5052545;28;20201;-59
2022/01/14 03:18:23;;;;;;;33.70;22.63;;;1.40;80.50;;;;;;5052509;28;20201;-59
2022/01/14 03:20:52;;;;;;;30.92;19.98;;;1.30;80.90;;;;;;5052544;28;20237;-59
2022/01/14 03:23:20;;;;;;;36.75;19.92;;;1.30;81.10;;;;;;5052267;28;20202;-58
2022/01/14 03:25:51;;;;;;;31.15;19.65;;;1.20;81.60;;;;;;5052425;28;20201;-60
2022/01/14 03:28:21;;;;;;;33.67;20.27;;;1.20;81.60;;;;;;5051207;28;20229;-58
2022/01/14 03:30:50;;;;;;;29.80;17.33;;;1.20;81.50;;;;;;5052476;28;20209;-59
2022/01/14 03:33:18;;;;;;;32.42;18.52;;;1.20;81.40;;;;;;5052299;28;20239;-59
2022/01/14 03:35:45;;;;;;;30.77;19.15;;;1.20;81.80;;;;;;5053442;28;20201;-59
2022/01/14 03:38:12;;;;;;;34.22;19.67;;;1.20;82.00;;;;;;5055972;28;20216;-57
2022/01/14 03:40:39;;;;;;;31.40;19.55;;;1.30;81.80;;;;;;5056110;28;20660;-59
2022/01/14 03:43:05;;;;;;;29.48;17.95;;;1.30;81.60;;;;;;5054772;28;20212;-59
2022/01/14 03:45:34;;;;;;;33.67;19.50;;;1.10;82.10;;;;;;5056003;28;20206;-58
2022/01/14 03:48:01;;;;;;;23.15;17.33;;;1.10;82.70;;;;;;5056093;28;20201;-59
2022/01/14 03:50:27;;;;;;;29.08;19.20;;;1.10;82.80;;;;;;5055970;28;20233;-59
2022/01/14 03:52:55;;;;;;;26.70;18.65;;;1.20;82.10;;;;;;5055487;28;20233;-58
2022/01/14 03:55:22;;;;;;;35.17;19.13;;;1.40;81.50;;;;;;5055796;28;20213;-59
2022/01/14 03:57:49;;;;;;;23.75;15.80;;;1.40;80.90;;;;;;5054372;28;20204;-59
2022/01/14 04:00:18;;;;;;;24.05;16.98;;;1.50;80.40;;;;;;5055814;28;20223;-58
2022/01/14 04:02:47;;;;;;;23.42;14.32;;;1.50;79.70;;;;;;5055743;28;20219;-59
2022/01/14 04:05:14;;;;;;;25.35;16.23;;;1.60;78.90;;;;;;5055532;28;20209;-59
2022/01/14 04:07:41;;;;;;;23.02;14.70;;;1.70;78.30;;;;;;5055331;28;20202;-56
2022/01/14 04:10:11;;;;;;;21.83;13.20;;;1.80;77.50;;;;;;5055614;28;20209;-58
2022/01/14 04:12:47;;;;;;;23.52;14.57;;;1.90;77.20;;;;;;5053992;28;20237;-56
2022/01/14 04:18:02;;;;;;;27.23;18.20;;;2.10;77.00;;;;;;5055362;28;20210;-58
2022/01/14 04:20:30;;;;;;;28.33;17.77;;;1.90;78.20;;;;;;5055303;28;20291;-56
2022/01/14 04:22:57;;;;;;;24.70;17.50;;;1.80;79.00;;;;;;5055075;28;20212;-54
2022/01/14 04:25:24;;;;;;;19.55;15.80;;;1.70;78.50;;;;;;5055270;28;20574;-56
2022/01/14 04:27:51;;;;;;;21.83;16.88;;;1.60;78.50;;;;;;5053920;28;20205;-56
2022/01/14 04:30:20;;;;;;;22.70;16.50;;;1.60;78.50;;;;;;5055245;28;20201;-58
2022/01/14 04:32:47;;;;;;;30.80;17.30;;;1.50;78.80;;;;;;5054965;28;20597;-55
2022/01/14 04:35:15;;;;;;;23.98;15.73;;;1.50;78.90;;;;;;5055137;28;20208;-56
2022/01/14 04:37:42;;;;;;;27.38;17.98;;;1.40;78.90;;;;;;5054930;28;20296;-57
2022/01/14 04:40:12;;;;;;;31.98;17.10;;;1.40;79.00;;;;;;5055064;28;20212;-58
2022/01/14 04:42:41;;;;;;;24.27;16.25;;;1.30;79.10;;;;;;5053597;28;20208;-55
2022/01/14 04:45:09;;;;;;;21.15;15.73;;;1.20;79.30;;;;;;5054734;28;20215;-59
2022/01/14 04:47:44;;;;;;;25.13;15.10;;;1.20;79.40;;;;;;5054841;28;20288;-58
2022/01/14 04:50:12;;;;;;;18.70;14.55;;;1.10;79.80;;;;;;5054784;28;20679;-56
2022/01/14 04:52:41;;;;;;;23.25;16.52;;;1.00;80.00;;;;;;5054672;28;20221;-54
2022/01/14 04:55:10;;;;;;;21.67;14.93;;;0.90;80.10;;;;;;5054725;28;20232;-56
2022/01/14 04:57:37;;;;;;;19.88;14.60;;;0.90;80.60;;;;;;5053181;28;20232;-54
2022/01/14 05:00:06;;;;;;;23.17;15.15;;;0.80;81.10;;;;;;5054602;28;20774;-57
2022/01/14 05:02:33;;;;;;;17.75;14.77;;;0.80;80.80;;;;;;5054477;28;20208;-57
2022/01/14 05:05:01;;;;;;;19.95;14.70;;;0.90;80.50;;;;;;5054492;28;20288;-58
2022/01/14 05:07:28;;;;;;;18.70;13.48;;;1.00;79.90;;;;;;5054314;28;20308;-56
2022/01/14 05:10:16;;;;;;;22.00;15.85;;;1.00;79.80;;;;;;5054579;28;20208;-57
2022/01/14 05:12:44;;;;;;;26.83;14.88;;;1.10;79.70;;;;;;5052844;28;20238;-57
2022/01/14 05:15:12;;;;;;;22.25;15.05;;;1.00;79.80;;;;;;5054294;28;20676;-58
2022/01/14 05:17:39;;;;;;;21.50;14.50;;;1.00;80.10;;;;;;5054208;28;20201;-57
2022/01/14 05:20:08;;;;;;;22.90;14.52;;;0.90;80.30;;;;;;5054227;28;20201;-55
2022/01/14 05:22:35;;;;;;;23.08;13.52;;;0.90;80.60;;;;;;5053927;28;20201;-57
2022/01/14 05:25:03;;;;;;;21.45;13.70;;;0.90;80.80;;;;;;5054212;28;20201;-59
2022/01/14 05:27:30;;;;;;;15.10;10.93;;;0.90;80.30;;;;;;5052774;28;20452;-58
2022/01/14 05:29:57;;;;;;;16.10;11.73;;;1.00;80.20;;;;;;5054070;28;20284;-56
2022/01/14 05:32:26;;;;;;;16.25;12.70;;;1.20;79.50;;;;;;5053853;28;20220;-55
2022/01/14 05:34:52;;;;;;;18.50;12.90;;;1.30;78.80;;;;;;5053931;28;20288;-57
2022/01/14 05:37:19;;;;;;;17.73;13.50;;;1.50;78.80;;;;;;5053645;28;20569;-57
2022/01/14 05:39:46;;;;;;;11.77;10.13;;;1.50;78.80;;;;;;5053809;28;20679;-58
2022/01/14 05:42:15;;;;;;;12.52;9.55;;;1.70;77.50;;;;;;5052444;28;20205;-59
2022/01/14 05:44:41;;;;;;;11.85;9.98;;;1.80;76.60;;;;;;5053664;28;20215;-56
2022/01/14 05:47:09;;;;;;;11.50;9.70;;;2.00;74.10;;;;;;5053707;28;20209;-55
2022/01/14 05:49:36;;;;;;;8.38;7.22;;;2.20;75.60;;;;;;5053646;28;20209;-56
2022/01/14 05:52:03;;;;;;;8.30;7.55;;;2.40;73.80;;;;;;5053421;28;20205;-58
2022/01/14 05:54:30;;;;;;;8.45;7.65;;;2.50;70.80;;;;;;5053402;28;20232;-60
2022/01/14 05:56:57;;;;;;;9.75;7.43;;;2.70;72.70;;;;;;5053348;28;20297;-57
2022/01/14 05:59:25;;;;;;;7.95;7.25;;;2.90;73.70;;;;;;5051674;28;20212;-58
2022/01/14 06:01:52;;;;;;;11.23;9.07;;;3.10;73.70;;;;;;5053477;28;20293;-59
2022/01/14 06:04:19;;;;;;;9.52;8.60;;;3.20;72.20;;;;;;5053187;28;20213;-59
2022/01/14 06:06:46;;;;;;;9.60;8.70;;;3.30;71.40;;;;;;5053330;28;20300;-58
2022/01/14 06:09:13;;;;;;;9.70;8.70;;;3.40;71.70;;;;;;5053208;28;20206;-58
2022/01/14 06:11:40;;;;;;;11.15;8.65;;;3.30;68.10;;;;;;5053230;28;20264;-60
2022/01/14 06:14:07;;;;;;;11.23;9.80;;;3.20;69.10;;;;;;5051952;28;20240;-59
2022/01/14 06:16:35;;;;;;;10.20;9.00;;;3.10;69.60;;;;;;5053205;28;20292;-58
2022/01/14 06:19:02;;;;;;;10.40;9.38;;;3.10;70.30;;;;;;5053009;28;20206;-58
2022/01/14 06:21:29;;;;;;;12.20;10.75;;;3.20;70.90;;;;;;5053055;28;20296;-59
2022/01/14 06:23:56;;;;;;;16.27;11.60;;;3.30;70.00;;;;;;5052959;28;20839;-58
2022/01/14 06:26:23;;;;;;;16.85;15.05;;;3.30;69.80;;;;;;5053105;28;20233;-58
2022/01/14 06:28:51;;;;;;;19.48;14.02;;;3.10;70.20;;;;;;5051760;28;20241;-58
2022/01/14 06:31:18;;;;;;;23.02;17.35;;;2.90;71.10;;;;;;5052824;28;20206;-58
2022/01/14 06:33:46;;;;;;;21.83;15.43;;;2.60;72.30;;;;;;5052641;28;20722;-58
2022/01/14 06:36:14;;;;;;;22.65;15.70;;;2.30;73.40;;;;;;5052771;28;20201;-59
2022/01/14 06:38:41;;;;;;;20.27;15.05;;;2.10;74.20;;;;;;5052667;28;20296;-58
2022/01/14 06:41:08;;;;;;;18.20;16.27;;;1.90;74.30;;;;;;5052828;28;20201;-58
2022/01/14 06:43:34;;;;;;;20.90;14.32;;;1.70;75.00;;;;;;5051488;28;20311;-59
2022/01/14 06:46:01;;;;;;;21.65;15.95;;;1.50;75.70;;;;;;5052595;28;20652;-59
2022/01/14 06:48:28;;;;;;;17.63;14.55;;;1.30;76.60;;;;;;5052775;28;20229;-58
2022/01/14 06:50:58;;;;;;;16.08;12.55;;;1.20;77.30;;;;;;5052713;28;20212;-58
2022/01/14 06:53:24;;;;;;;13.95;10.93;;;1.10;77.20;;;;;;5052418;28;20700;-58
2022/01/14 06:55:51;;;;;;;8.93;8.02;;;1.10;76.50;;;;;;5052573;28;20240;-58
2022/01/14 06:58:18;;;;;;;7.75;7.13;;;1.20;76.00;;;;;;5051210;28;20232;-58
2022/01/14 07:00:45;;;;;;;9.23;8.25;;;1.30;75.00;;;;;;5052546;28;20570;-56
2022/01/14 07:03:12;;;;;;;10.55;9.02;;;1.60;73.70;;;;;;5052515;28;20566;-55
2022/01/14 07:05:39;;;;;;;10.85;10.00;;;1.70;73.10;;;;;;5052511;28;20547;-55
2022/01/14 07:08:07;;;;;;;15.32;12.10;;;1.90;73.40;;;;;;5052299;28;20207;-56
2022/01/14 07:10:36;;;;;;;14.85;12.27;;;2.00;73.30;;;;;;5053050;28;20566;-56
2022/01/14 07:13:04;;;;;;;15.48;11.23;;;2.10;74.00;;;;;;5055154;28;20254;-59
2022/01/14 07:15:31;;;;;;;9.43;8.38;;;2.30;73.70;;;;;;5056449;28;20243;-58
2022/01/14 07:17:58;;;;;;;10.10;9.30;;;2.40;73.00;;;;;;5056410;28;20292;-58
2022/01/14 07:20:25;;;;;;;9.63;8.10;;;2.60;72.70;;;;;;5056433;28;20304;-57
2022/01/14 07:22:52;;;;;;;9.05;8.15;;;2.70;72.10;;;;;;5056185;28;20208;-58
2022/01/14 07:25:21;;;;;;;12.27;11.02;;;2.90;72.00;;;;;;5056283;28;20301;-58
2022/01/14 07:27:48;;;;;;;10.27;9.27;;;3.00;72.10;;;;;;5054861;28;20208;-55
2022/01/14 07:30:15;;;;;;;12.70;10.55;;;3.20;72.10;;;;;;5056140;28;20690;-58
2022/01/14 07:32:42;;;;;;;14.00;12.27;;;3.30;72.00;;;;;;5056232;28;20202;-55
2022/01/14 07:35:10;;;;;;;14.52;12.40;;;3.30;71.70;;;;;;5056041;28;20591;-55
2022/01/14 07:37:37;;;;;;;19.35;14.15;;;3.30;71.70;;;;;;5055970;28;20201;-56
2022/01/14 07:40:05;;;;;;;16.17;13.50;;;3.30;71.60;;;;;;5056044;28;20206;-55
2022/01/14 07:42:34;;;;;;;21.10;15.02;;;3.20;71.60;;;;;;5054668;28;20443;-56
2022/01/14 07:45:01;;;;;;;18.55;13.93;;;3.20;71.60;;;;;;5055865;28;20248;-56
2022/01/14 07:47:28;;;;;;;17.70;14.30;;;3.10;71.50;;;;;;5055950;28;20264;-58
2022/01/14 07:49:55;;;;;;;19.05;13.52;;;3.00;71.60;;;;;;5055839;28;20197;-55
2022/01/14 07:52:22;;;;;;;19.40;14.65;;;2.90;71.90;;;;;;5055659;28;20296;-55
2022/01/14 07:54:48;;;;;;;19.95;15.60;;;2.60;72.90;;;;;;5055532;28;20233;-56
2022/01/14 07:57:16;;;;;;;17.25;15.05;;;2.60;73.40;;;;;;5054372;28;20221;-58
2022/01/14 07:59:45;;;;;;;20.90;14.40;;;2.60;73.60;;;;;;5055659;28;20236;-54
2022/01/14 08:02:13;;;;;;;18.25;14.57;;;2.50;73.80;;;;;;5055622;28;20205;-56
2022/01/14 08:04:41;;;;;;;17.20;14.05;;;2.50;73.90;;;;;;5055684;28;20209;-56
2022/01/14 08:07:12;;;;;;;17.58;14.57;;;2.50;74.10;;;;;;5055547;28;20263;-57
2022/01/14 08:09:40;;;;;;;13.63;11.90;;;2.50;74.20;;;;;;5055299;28;20210;-57
2022/01/14 08:12:08;;;;;;;15.02;13.43;;;2.60;74.30;;;;;;5055183;28;20243;-55
2022/01/14 08:14:35;;;;;;;16.05;12.38;;;2.60;74.00;;;;;;5054849;28;20312;-56
2022/01/14 08:17:04;;;;;;;13.07;11.75;;;2.50;73.90;;;;;;5055261;28;20205;-55
2022/01/14 08:19:33;;;;;;;11.77;10.50;;;2.50;73.70;;;;;;5055262;28;20676;-59
2022/01/14 08:22:01;;;;;;;18.25;13.82;;;2.30;73.60;;;;;;5054627;28;20540;-56
2022/01/14 08:24:28;;;;;;;17.60;14.63;;;2.30;74.50;;;;;;5055055;28;20198;-55
2022/01/14 08:26:55;;;;;;;18.90;13.30;;;2.50;74.90;;;;;;5055172;28;20288;-56
2022/01/14 08:29:21;;;;;;;16.15;13.85;;;2.60;75.10;;;;;;5053777;28;20323;-55
2022/01/14 08:31:48;;;;;;;16.88;13.57;;;2.60;75.50;;;;;;5055205;28;20201;-55
2022/01/14 08:34:17;;;;;;;18.52;15.00;;;2.60;75.60;;;;;;5054890;28;20237;-55
2022/01/14 08:36:44;;;;;;;18.02;14.20;;;2.60;75.30;;;;;;5054775;28;20201;-55
2022/01/14 08:39:10;;;;;;;20.50;14.60;;;2.80;75.50;;;;;;5054697;28;20209;-58
2022/01/14 08:41:38;;;;;;;14.70;12.85;;;3.00;75.40;;;;;;5054804;28;20233;-57
2022/01/14 08:44:05;;;;;;;18.15;13.88;;;3.20;75.00;;;;;;5053427;28;20676;-56
2022/01/14 08:46:34;;;;;;;21.13;13.57;;;3.30;74.50;;;;;;5054760;28;20212;-55
2022/01/14 08:49:01;;;;;;;19.60;15.10;;;3.30;73.20;;;;;;5054646;28;20209;-54
2022/01/14 08:51:29;;;;;;;17.75;13.60;;;3.20;73.10;;;;;;5054602;28;20197;-56
2022/01/14 08:54:02;;;;;;;26.05;16.55;;;3.00;73.80;;;;;;5054466;28;20279;-54
2022/01/14 08:56:30;;;;;;;18.50;14.30;;;3.00;74.30;;;;;;5054606;28;20253;-55
2022/01/14 08:58:56;;;;;;;19.27;15.20;;;3.20;74.60;;;;;;5053266;28;20205;-54
2022/01/14 09:01:23;;;;;;;21.73;17.33;;;3.30;74.00;;;;;;5054666;28;20245;-54
2022/01/14 09:03:50;;;;;;;19.08;16.05;;;3.30;73.80;;;;;;5054144;28;20216;-54
2022/01/14 09:06:17;;;;;;;19.80;15.30;;;3.20;73.80;;;;;;5054429;28;20198;-54
2022/01/14 09:08:45;;;;;;;37.13;22.27;;;3.20;73.90;;;;;;5054288;28;20291;-54
2022/01/14 09:11:12;;;;;;;57.80;28.10;;;3.30;73.70;;;;;;5054295;28;20324;-53
2022/01/14 09:13:39;;;;;;;33.38;21.05;;;3.40;73.80;;;;;;5052877;28;20236;-54
2022/01/14 09:16:06;;;;;;;31.30;20.00;;;3.40;73.40;;;;;;5054298;28;20202;-54
2022/01/14 09:18:33;;;;;;;23.65;16.98;;;3.40;73.70;;;;;;5054248;28;20209;-54
2022/01/14 09:21:00;;;;;;;27.00;18.67;;;3.30;73.80;;;;;;5054141;28;20292;-58
2022/01/14 09:23:28;;;;;;;26.08;19.33;;;3.30;74.00;;;;;;5053828;28;20236;-53
2022/01/14 09:25:57;;;;;;;28.63;20.30;;;3.30;74.10;;;;;;5053825;28;20228;-55
2022/01/14 09:28:24;;;;;;;24.08;17.70;;;3.20;73.80;;;;;;5052763;28;20205;-54
2022/01/14 09:30:51;;;;;;;23.65;16.48;;;3.10;73.60;;;;;;5053839;28;20201;-54
2022/01/14 09:33:18;;;;;;;28.40;18.98;;;3.00;73.70;;;;;;5053086;28;20198;-54
2022/01/14 09:35:46;;;;;;;30.67;20.42;;;3.20;73.70;;;;;;5053784;28;20229;-57
2022/01/14 09:38:13;;;;;;;19.95;15.90;;;3.40;74.20;;;;;;5053652;28;20248;-55
2022/01/14 09:40:43;;;;;;;24.13;16.17;;;3.40;73.50;;;;;;5053815;28;20209;-54
2022/01/14 09:43:13;;;;;;;24.00;18.33;;;3.60;73.20;;;;;;5052516;28;20215;-54
2022/01/14 09:45:41;;;;;;;34.28;20.95;;;3.80;72.90;;;;;;5053695;28;20563;-54
2022/01/14 09:48:08;;;;;;;25.23;17.95;;;4.00;72.80;;;;;;5053557;28;20212;-54
2022/01/14 09:50:35;;;;;;;26.23;16.80;;;4.20;72.60;;;;;;5053611;28;20202;-54
2022/01/14 09:53:02;;;;;;;19.90;16.27;;;4.40;71.70;;;;;;5053295;28;20558;-56
2022/01/14 09:55:29;;;;;;;22.63;17.10;;;4.50;70.60;;;;;;5053306;28;20243;-55
2022/01/14 09:57:57;;;;;;;23.60;16.40;;;4.50;69.60;;;;;;5051845;28;20201;-56
2022/01/14 10:00:25;;;;;;;19.77;15.57;;;4.60;69.70;;;;;;5053345;28;20208;-57
2022/01/14 10:02:52;;;;;;;14.52;13.13;;;4.60;69.00;;;;;;5053349;28;20201;-57
2022/01/14 10:05:37;;;;;;;14.27;12.48;;;4.70;68.50;;;;;;5053256;28;20296;-57
2022/01/14 10:08:09;;;;;;;14.50;13.00;;;4.70;68.00;;;;;;5053131;28;20207;-57
2022/01/14 10:10:38;;;;;;;14.00;12.50;;;4.70;67.40;;;;;;5052943;28;20201;-57
2022/01/14 10:13:13;;;;;;;20.33;14.35;;;4.70;67.40;;;;;;5051861;28;20213;-57
2022/01/14 10:15:46;;;;;;;17.55;14.55;;;4.70;67.20;;;;;;5052950;28;20238;-57
2022/01/14 10:18:15;;;;;;;18.00;15.27;;;4.70;67.00;;;;;;5053065;28;20205;-56
2022/01/14 10:20:42;;;;;;;22.15;16.10;;;4.70;67.50;;;;;;5052939;28;20248;-55
2022/01/14 10:23:12;;;;;;;19.65;16.90;;;4.80;67.80;;;;;;5052782;28;20202;-56
2022/01/14 10:25:40;;;;;;;25.77;18.90;;;4.90;68.30;;;;;;5052968;28;20205;-57
2022/01/14 10:28:18;;;;;;;29.38;20.27;;;5.00;68.10;;;;;;5051741;28;20202;-56
2022/01/14 10:30:49;;;;;;;20.50;18.35;;;5.10;68.50;;;;;;5052921;28;20197;-56
2022/01/14 10:33:20;;;;;;;21.52;17.77;;;5.10;68.70;;;;;;5052894;28;20206;-57
2022/01/14 10:35:48;;;;;;;26.48;19.23;;;5.20;68.80;;;;;;5052749;28;20237;-57
2022/01/14 10:38:17;;;;;;;24.38;19.88;;;5.30;68.70;;;;;;5052541;28;20207;-57
2022/01/14 10:40:46;;;;;;;21.63;19.02;;;5.40;69.30;;;;;;5052797;28;20739;-54
2022/01/14 10:43:16;;;;;;;24.67;18.48;;;5.50;68.50;;;;;;5051408;28;20212;-57
2022/01/14 10:45:44;;;;;;;23.63;17.98;;;5.60;68.20;;;;;;5052567;28;20212;-56
2022/01/14 10:48:14;;;;;;;21.25;18.00;;;5.50;68.20;;;;;;5052566;28;20202;-56
2022/01/14 10:50:44;;;;;;;24.73;17.75;;;5.60;68.20;;;;;;5052694;28;20215;-54
2022/01/14 10:53:13;;;;;;;22.80;18.75;;;5.80;68.20;;;;;;5052497;28;20198;-57
2022/01/14 10:55:42;;;;;;;22.67;19.08;;;6.00;68.30;;;;;;5052443;28;20647;-57
2022/01/14 10:58:14;;;;;;;20.55;17.45;;;6.30;69.10;;;;;;5051228;28;20651;-56
2022/01/14 11:00:43;;;;;;;18.15;16.45;;;6.40;66.00;;;;;;5052493;28;20202;-56
2022/01/14 11:03:12;;;;;;;18.15;16.20;;;6.50;66.30;;;;;;5052338;28;20233;-54
2022/01/14 11:05:39;;;;;;;21.98;17.70;;;6.60;65.80;;;;;;5052512;28;20241;-55
2022/01/14 11:08:07;;;;;;;20.00;17.10;;;6.70;66.10;;;;;;5052340;28;20201;-56
2022/01/14 11:10:36;;;;;;;18.92;16.85;;;6.70;66.00;;;;;;5052324;28;20652;-57
2022/01/14 11:13:06;;;;;;;17.75;15.52;;;7.00;67.50;;;;;;5051083;28;20324;-55
2022/01/14 11:15:33;;;;;;;22.90;17.05;;;7.30;67.70;;;;;;5052275;28;20232;-57
2022/01/14 11:18:04;;;;;;;19.23;17.17;;;7.60;66.40;;;;;;5052209;28;20216;-57
2022/01/14 11:20:37;;;;;;;19.75;16.33;;;8.00;68.10;;;;;;5052411;28;20205;-58
2022/01/14 11:23:15;;;;;;;18.60;16.42;;;9.30;66.50;;;;;;5052282;28;20209;-56
2022/01/14 11:25:49;;;;;;;18.10;16.20;;;11.40;64.10;;;;;;5052338;28;20246;-58
2022/01/14 11:28:20;;;;;;;18.50;16.70;;;13.50;49.50;;;;;;5050899;28;20201;-56
2022/01/14 11:30:48;;;;;;;25.40;18.25;;;14.70;50.20;;;;;;5052292;28;20211;-60
2022/01/14 11:33:16;;;;;;;21.00;19.00;;;16.10;48.30;;;;;;5052164;28;20660;-60
2022/01/14 11:35:55;;;;;;;19.60;17.60;;;17.30;47.90;;;;;;5052152;28;20241;-57
2022/01/14 11:38:41;;;;;;;21.33;19.20;;;18.50;43.00;;;;;;5051953;28;20896;-59
2022/01/14 11:41:09;;;;;;;21.30;19.03;;;19.20;44.00;;;;;;5052206;28;20911;-58
2022/01/14 11:43:44;;;;;;;23.10;20.60;;;20.10;42.20;;;;;;5050773;28;20530;-59
2022/01/14 11:46:15;;;;;;;22.33;20.23;;;20.70;41.90;;;;;;5052050;28;20453;-58
2022/01/14 11:48:47;;;;;;;26.47;21.17;;;21.00;40.00;;;;;;5051939;28;20456;-59
2022/01/14 11:51:16;;;;;;;22.43;20.17;;;21.50;38.40;;;;;;5052032;28;20487;-58
2022/01/14 11:53:51;;;;;;;22.57;20.30;;;21.80;40.70;;;;;;5051745;28;21029;-58
2022/01/14 11:56:45;;;;;;;21.40;19.30;;;22.40;39.60;;;;;;5052233;28;20499;-58
2022/01/14 11:59:40;;;;;;;23.00;20.70;;;22.90;37.70;;;;;;5054321;28;20447;-58
2022/01/14 12:02:35;;;;;;;24.90;21.63;;;22.60;32.80;;;;;;5055661;28;20444;-58
2022/01/14 12:05:22;;;;;;;23.07;20.57;;;22.20;34.90;;;;;;5055574;28;20458;-57
2022/01/14 12:08:23;;;;;;;24.37;21.80;;;21.50;35.10;;;;;;5055612;28;20439;-58
2022/01/14 12:11:14;;;;;;;21.47;18.90;;;20.60;33.90;;;;;;5055357;28;20487;-61
2022/01/14 12:13:54;;;;;;;23.33;21.23;;;20.40;35.60;;;;;;5054142;28;20462;-61
2022/01/14 12:16:46;;;;;;;27.03;21.17;;;20.30;37.90;;;;;;5055293;28;21002;-61
2022/01/14 12:19:17;;;;;;;23.20;20.90;;;20.90;36.30;;;;;;5055321;28;20942;-59
2022/01/14 12:22:00;;;;;;;27.17;24.47;;;21.60;37.50;;;;;;5055300;28;20958;-58
2022/01/14 12:24:43;;;;;;;22.60;20.30;;;21.80;34.00;;;;;;5055082;28;20448;-57
2022/01/14 12:27:49;;;;;;;20.90;18.20;;;22.30;34.50;;;;;;5054724;28;20446;-57
2022/01/14 12:30:26;;;;;;;45.23;30.47;;;22.70;34.20;;;;;;5054764;28;20964;-58
2022/01/14 12:32:55;;;;;;;25.07;22.77;;;22.10;33.50;;;;;;5055002;28;20960;-58
2022/01/14 12:35:28;;;;;;;21.57;19.57;;;21.90;33.70;;;;;;5054929;28;20531;-60
2022/01/14 12:37:56;;;;;;;23.03;20.77;;;21.70;35.00;;;;;;5054986;28;20859;-55
2022/01/14 12:40:27;;;;;;;20.83;18.80;;;21.70;34.90;;;;;;5054826;28;20451;-58
2022/01/14 12:42:56;;;;;;;19.60;17.60;;;21.30;34.80;;;;;;5053529;28;20857;-61
2022/01/14 12:45:30;;;;;;;21.57;19.57;;;21.20;36.40;;;;;;5054859;28;20456;-60
2022/01/14 12:48:48;;;;;;;21.97;19.80;;;21.10;36.10;;;;;;5054959;28;20464;-58
2022/01/14 12:51:19;;;;;;;22.73;20.63;;;20.60;34.60;;;;;;5054661;28;20962;-60
2022/01/14 12:53:55;;;;;;;21.13;19.20;;;20.70;35.50;;;;;;5054510;28;20930;-59
2022/01/14 12:56:25;;;;;;;21.07;19.13;;;20.00;35.70;;;;;;5054691;28;20570;-59
2022/01/14 12:58:53;;;;;;;18.77;16.87;;;20.00;37.30;;;;;;5053377;28;20794;-60
2022/01/14 13:01:25;;;;;;;20.60;18.70;;;20.10;37.80;;;;;;5054440;28;20483;-60
2022/01/14 13:03:55;;;;;;;20.83;19.03;;;19.60;37.20;;;;;;5054407;28;20444;-60
2022/01/14 13:06:22;;;;;;;22.37;20.27;;;19.00;37.00;;;;;;5054544;28;20443;-60
2022/01/14 13:08:55;;;;;;;21.30;19.20;;;17.80;38.90;;;;;;5053169;28;20443;-59